Time;durP1;ratioP1;P1;durP2;ratioP2;P2;SDS_P1;SDS_P2;PMS_P1;PMS_P2;Temp;Humidity;BMP_temperature;BMP_pressure;BME280_temperature;BME280_humidity;BME280_pressure;Samples;Min_cycle;Max_cycle;Signal;HPM_P1;HPM_P2
2022/08/22 00:00:22;;;;;;;5.88;1.73;;;;;;;21.16;50.59;101527.44;5026649;28;20054;-62
2022/08/22 00:03:11;;;;;;;6.20;2.72;;;;;;;21.15;50.60;101523.06;5026202;28;20049;-62
2022/08/22 00:05:58;;;;;;;6.18;2.60;;;;;;;21.16;50.64;101521.13;5026006;28;20396;-62
2022/08/22 00:08:37;;;;;;;4.53;2.05;;;;;;;21.15;50.69;101524.97;5025733;28;20084;-62
2022/08/22 00:11:14;;;;;;;5.63;2.03;;;;;;;21.15;50.55;101522.22;5026368;28;20053;-62
2022/08/22 00:13:50;;;;;;;5.70;1.98;;;;;;;21.13;50.69;101528.78;5026370;28;20037;-62
2022/08/22 00:16:36;;;;;;;5.40;2.58;;;;;;;21.13;50.78;101530.72;5025719;28;20054;-62
2022/08/22 00:19:16;;;;;;;7.25;2.10;;;;;;;21.12;50.77;101526.34;5026381;28;20077;-62
2022/08/22 00:21:53;;;;;;;4.70;2.05;;;;;;;21.11;50.81;101524.69;5025946;28;20085;-62
2022/08/22 00:24:30;;;;;;;5.68;2.65;;;;;;;21.11;50.81;101527.44;5025755;28;20103;-62
2022/08/22 00:27:03;;;;;;;5.03;2.22;;;;;;;21.09;50.90;101529.63;5027052;28;20404;-62
2022/08/22 00:29:38;;;;;;;6.55;2.45;;;;;;;21.07;50.97;101526.34;5030215;28;20049;-62
2022/08/22 00:32:13;;;;;;;5.72;2.33;;;;;;;21.08;50.84;101526.06;5030018;28;20049;-62
2022/08/22 00:34:52;;;;;;;3.85;1.80;;;;;;;21.08;50.92;101528.81;5030289;28;20077;-62
2022/08/22 00:37:28;;;;;;;8.55;2.50;;;;;;;21.07;51.11;101529.06;5029613;28;20053;-62
2022/08/22 00:40:04;;;;;;;4.72;2.33;;;;;;;21.06;51.11;101521.97;5030272;28;20077;-62
2022/08/22 00:43:00;;;;;;;5.72;2.22;;;;;;;21.04;51.05;101524.97;5029869;28;20106;-62
2022/08/22 00:46:01;;;;;;;5.45;2.00;;;;;;;21.03;51.03;101523.34;5029862;28;20080;-62
2022/08/22 00:49:01;;;;;;;5.22;2.00;;;;;;;20.95;51.13;101506.69;5012694;28;20078;-62
2022/08/22 00:51:51;;;;;;;5.53;2.22;;;;;;;21.03;51.16;101526.06;5026273;28;20077;-62
2022/08/22 00:54:33;;;;;;;7.13;2.17;;;;;;;21.02;51.13;101524.44;5029332;28;20054;-63
2022/08/22 00:57:19;;;;;;;6.22;2.58;;;;;;;21.02;51.17;101526.34;5029301;28;20085;-62
2022/08/22 01:00:08;;;;;;;5.32;2.15;;;;;;;21.01;51.32;101527.44;5029661;28;20077;-62
2022/08/22 01:02:49;;;;;;;5.80;2.42;;;;;;;21.00;51.14;101523.06;5029410;28;20077;-62
2022/08/22 01:05:40;;;;;;;7.10;2.03;;;;;;;20.99;51.33;101526.91;5029584;28;20064;-62
2022/08/22 01:08:23;;;;;;;5.85;2.38;;;;;;;20.97;51.36;101526.34;5028649;28;20088;-62
2022/08/22 01:11:08;;;;;;;4.75;2.03;;;;;;;20.96;51.30;101532.91;5043240;28;20080;-62
2022/08/22 01:13:49;;;;;;;5.35;2.40;;;;;;;20.95;51.31;101526.63;5049135;28;20045;-62
2022/08/22 01:16:34;;;;;;;8.77;2.97;;;;;;;20.93;51.28;101520.63;5048644;28;20052;-62
2022/08/22 01:19:49;;;;;;;6.70;2.55;;;;;;;20.92;51.37;101523.63;5048271;28;20087;-62
2022/08/22 01:22:51;;;;;;;5.00;2.22;;;;;;;20.90;51.55;101521.16;4963941;29;20078;-62
2022/08/22 01:26:00;;;;;;;8.05;2.53;;;;;;;20.91;51.50;101522.00;4968934;28;20047;-62
2022/08/22 01:29:04;;;;;;;6.18;2.47;;;;;;;20.89;51.42;101525.00;4970228;28;20588;-62
2022/08/22 01:32:28;;;;;;;5.68;2.35;;;;;;;20.89;51.50;101521.44;4987460;28;20086;-62
2022/08/22 01:35:08;;;;;;;5.00;1.92;;;;;;;20.87;51.52;101524.44;4910750;29;20173;-62
2022/08/22 01:38:16;;;;;;;5.65;2.22;;;;;;;20.86;51.44;101524.72;4891659;29;20182;-62
2022/08/22 01:41:19;;;;;;;7.15;2.75;;;;;;;20.82;51.61;101521.72;4886754;29;20092;-62
2022/08/22 01:44:20;;;;;;;5.05;2.05;;;;;;;20.84;51.54;101521.44;4836255;29;20047;-62
2022/08/22 01:46:57;;;;;;;5.47;2.10;;;;;;;20.83;51.66;101523.34;4836084;29;20082;-62
2022/08/22 01:49:37;;;;;;;4.13;1.92;;;;;;;20.82;51.59;101524.44;4836396;29;20146;-63
2022/08/22 01:52:10;;;;;;;5.13;2.00;;;;;;;20.75;51.62;101502.09;4836613;29;20082;-62
2022/08/22 01:54:48;;;;;;;5.35;2.40;;;;;;;20.80;51.73;101519.25;4836258;29;20118;-62
2022/08/22 01:57:18;;;;;;;3.42;1.90;;;;;;;20.80;51.69;101516.53;4856180;29;20087;-62
2022/08/22 01:59:47;;;;;;;5.82;2.15;;;;;;;20.80;51.72;101515.75;4910723;29;20057;-62
2022/08/22 02:02:38;;;;;;;7.75;2.58;;;;;;;20.79;51.81;101514.09;4910496;29;20083;-62
2022/08/22 02:05:18;;;;;;;6.95;2.30;;;;;;;20.77;51.82;101517.09;4910142;29;20196;-62
2022/08/22 02:07:57;;;;;;;4.60;2.50;;;;;;;20.77;51.81;101511.63;4909597;29;20132;-62
2022/08/22 02:10:41;;;;;;;8.38;2.55;;;;;;;20.77;51.71;101513.56;4921851;29;20071;-62
2022/08/22 02:13:27;;;;;;;6.00;2.13;;;;;;;20.76;51.83;101515.47;4966445;28;20110;-62
2022/08/22 02:16:07;;;;;;;6.80;2.90;;;;;;;20.74;51.82;101512.19;4967530;29;20094;-61
2022/08/22 02:18:49;;;;;;;5.07;2.55;;;;;;;20.74;51.79;101505.91;4977307;28;20285;-62
2022/08/22 02:21:26;;;;;;;4.50;2.25;;;;;;;20.71;51.98;101503.72;5047135;28;20132;-62
2022/08/22 02:24:02;;;;;;;8.02;3.08;;;;;;;20.73;52.01;101502.34;5027509;28;20056;-62
2022/08/22 02:26:44;;;;;;;7.15;2.42;;;;;;;20.72;51.94;101500.72;5027846;28;20125;-61
2022/08/22 02:29:17;;;;;;;5.45;2.45;;;;;;;20.72;51.94;101502.63;5028041;28;20622;-62
2022/08/22 02:31:53;;;;;;;5.78;2.83;;;;;;;20.71;52.02;101498.25;5027840;28;20075;-62
2022/08/22 02:34:34;;;;;;;6.05;2.42;;;;;;;20.69;52.07;101495.81;5032951;28;20041;-62
2022/08/22 02:37:12;;;;;;;7.15;2.85;;;;;;;20.69;52.01;101495.81;5047274;28;20073;-62
2022/08/22 02:39:49;;;;;;;5.70;2.67;;;;;;;20.67;52.11;101498.00;5045957;28;20076;-62
2022/08/22 02:42:24;;;;;;;6.00;2.15;;;;;;;20.66;52.16;101488.16;5047581;28;20076;-62
2022/08/22 02:45:00;;;;;;;5.70;2.53;;;;;;;20.67;52.17;101495.25;5047404;28;20073;-62
2022/08/22 02:47:35;;;;;;;6.32;2.83;;;;;;;20.68;52.06;101496.91;5034804;28;20056;-62
2022/08/22 02:50:19;;;;;;;5.78;2.67;;;;;;;20.66;52.24;101496.34;5027190;28;20050;-62
2022/08/22 02:52:57;;;;;;;7.13;3.13;;;;;;;20.66;52.20;101496.34;5027401;28;20049;-62
2022/08/22 02:55:39;;;;;;;8.10;3.20;;;;;;;20.66;52.16;101492.78;5027258;28;20050;-62
2022/08/22 02:58:15;;;;;;;5.18;2.65;;;;;;;20.64;52.40;101490.34;5027422;28;20074;-62
2022/08/22 03:00:48;;;;;;;5.40;2.60;;;;;;;20.65;52.35;101496.63;5027159;28;20057;-63
2022/08/22 03:03:21;;;;;;;4.57;1.88;;;;;;;20.62;52.39;101500.72;5027535;28;20241;-63
2022/08/22 03:05:58;;;;;;;7.85;2.78;;;;;;;20.62;52.44;101498.00;5027363;28;20073;-63
2022/08/22 03:08:31;;;;;;;5.90;2.72;;;;;;;20.60;52.43;101491.16;5026411;28;20053;-62
2022/08/22 03:11:17;;;;;;;6.97;2.70;;;;;;;20.60;52.55;101497.44;5027407;28;20050;-62
2022/08/22 03:13:53;;;;;;;6.78;3.08;;;;;;;20.60;52.44;101499.34;5026942;28;20077;-62
2022/08/22 03:16:28;;;;;;;6.15;2.78;;;;;;;20.58;52.40;101490.59;5026788;28;20054;-62
2022/08/22 03:19:02;;;;;;;6.55;2.78;;;;;;;20.57;52.59;101488.97;5027374;28;20069;-62
2022/08/22 03:21:36;;;;;;;6.75;2.80;;;;;;;20.56;52.68;101487.34;5026902;28;20053;-62
2022/08/22 03:24:12;;;;;;;9.98;3.13;;;;;;;20.56;52.53;101482.69;5026481;28;20046;-62
2022/08/22 03:26:49;;;;;;;8.23;2.77;;;;;;;20.55;52.66;101483.78;5026777;28;20077;-62
2022/08/22 03:29:22;;;;;;;8.18;2.70;;;;;;;20.54;52.71;101471.22;5040758;28;20083;-62
2022/08/22 03:32:10;;;;;;;9.70;2.53;;;;;;;20.53;52.79;101480.50;5046330;28;20442;-62
2022/08/22 03:34:53;;;;;;;5.50;2.80;;;;;;;20.52;52.65;101481.59;5046620;28;20052;-62
2022/08/22 03:37:31;;;;;;;8.13;2.60;;;;;;;20.49;52.75;101473.13;5044993;28;20418;-62
2022/08/22 03:40:03;;;;;;;7.85;3.28;;;;;;;20.50;52.79;101477.50;5046148;28;20059;-62
2022/08/22 03:43:07;;;;;;;7.22;2.70;;;;;;;20.49;52.79;101475.88;5046423;28;20050;-62
2022/08/22 03:45:57;;;;;;;7.57;3.10;;;;;;;20.48;52.76;101475.03;5034209;28;20085;-62
2022/08/22 03:48:44;;;;;;;5.82;2.90;;;;;;;20.46;52.86;101472.59;5026107;28;20050;-62
2022/08/22 03:51:31;;;;;;;5.03;2.38;;;;;;;20.44;52.87;101476.69;5026435;28;20085;-62
2022/08/22 03:54:28;;;;;;;8.13;3.05;;;;;;;20.44;52.99;101469.31;5026164;28;20126;-62
2022/08/22 03:57:38;;;;;;;5.40;2.60;;;;;;;20.44;52.93;101471.22;5026245;28;20049;-62
2022/08/22 04:00:48;;;;;;;5.85;2.38;;;;;;;20.43;53.03;101469.56;5030428;28;20088;-62
2022/08/22 04:03:41;;;;;;;6.75;2.97;;;;;;;20.42;53.02;101466.03;5025978;28;20064;-62
2022/08/22 04:06:45;;;;;;;6.45;3.20;;;;;;;20.40;52.93;101464.66;5026095;28;20077;-62
2022/08/22 04:09:56;;;;;;;8.55;3.20;;;;;;;20.40;52.99;101468.22;5006063;28;20049;-62
2022/08/22 04:12:53;;;;;;;7.28;2.92;;;;;;;20.39;53.11;101468.47;5012643;28;20136;-62
2022/08/22 04:15:48;;;;;;;5.20;2.90;;;;;;;20.38;53.15;101466.81;5026156;28;20050;-63
2022/08/22 04:18:44;;;;;;;5.28;2.67;;;;;;;20.37;53.12;101476.91;5040451;28;20053;-62
2022/08/22 04:21:28;;;;;;;8.95;3.90;;;;;;;20.37;53.29;101481.56;5036096;28;20050;-62
2022/08/22 04:24:12;;;;;;;5.63;3.22;;;;;;;20.35;53.26;101481.00;5025660;28;20073;-62
2022/08/22 04:26:45;;;;;;;6.40;2.53;;;;;;;20.35;53.29;101489.19;5025709;28;20057;-62
2022/08/22 04:29:19;;;;;;;5.32;2.70;;;;;;;20.33;53.30;101484.00;5039536;28;20053;-62
2022/08/22 04:31:56;;;;;;;6.18;2.95;;;;;;;20.32;53.42;101492.47;5044796;28;20049;-62
2022/08/22 04:34:32;;;;;;;5.97;2.88;;;;;;;20.30;53.31;101487.28;5045582;28;20129;-62
2022/08/22 04:37:06;;;;;;;11.57;3.47;;;;;;;20.30;53.43;101486.47;5034093;28;20054;-62
2022/08/22 04:39:43;;;;;;;9.32;3.00;;;;;;;20.29;53.34;101482.91;5025084;28;20092;-62
2022/08/22 04:42:16;;;;;;;6.32;3.30;;;;;;;20.29;53.52;101485.63;5027981;28;20132;-62
2022/08/22 04:45:04;;;;;;;6.30;2.78;;;;;;;20.29;53.70;101482.09;5045425;28;20080;-62
2022/08/22 04:47:37;;;;;;;6.57;2.45;;;;;;;20.27;53.43;101487.81;5045174;28;20045;-62
2022/08/22 04:50:15;;;;;;;5.90;2.60;;;;;;;20.26;53.55;101485.38;5027570;28;20096;-62
2022/08/22 04:53:04;;;;;;;6.55;3.08;;;;;;;20.26;53.53;101485.38;5025202;28;20050;-62
2022/08/22 04:55:39;;;;;;;7.80;3.03;;;;;;;20.24;53.65;101493.81;5026012;28;20045;-62
2022/08/22 04:58:24;;;;;;;6.80;2.55;;;;;;;20.24;53.73;101501.19;5025726;28;20061;-62
2022/08/22 05:01:09;;;;;;;5.93;3.28;;;;;;;20.22;53.61;101504.19;5025859;28;20080;-62
2022/08/22 05:03:43;;;;;;;6.97;3.50;;;;;;;20.22;53.64;101497.91;5025868;28;20427;-62
2022/08/22 05:06:17;;;;;;;5.82;3.00;;;;;;;20.21;53.74;101501.72;5025721;28;20046;-62
2022/08/22 05:08:48;;;;;;;7.43;3.22;;;;;;;20.20;53.71;101511.84;5024886;28;20050;-62
2022/08/22 05:11:23;;;;;;;8.27;3.22;;;;;;;20.19;53.65;101509.38;5025717;28;20104;-62
2022/08/22 05:13:56;;;;;;;5.78;2.58;;;;;;;20.17;53.89;101506.91;5027971;28;20050;-62
2022/08/22 05:16:28;;;;;;;8.48;3.08;;;;;;;20.17;53.72;101503.34;5029108;28;20049;-62
2022/08/22 05:19:01;;;;;;;6.95;2.70;;;;;;;20.17;53.83;101508.81;5029490;28;20054;-62
2022/08/22 05:21:34;;;;;;;7.07;3.17;;;;;;;20.14;53.84;101500.09;5028981;28;20073;-62
2022/08/22 05:24:06;;;;;;;6.40;3.10;;;;;;;20.15;53.95;101500.91;5028566;28;20049;-62
2022/08/22 05:26:38;;;;;;;6.70;3.05;;;;;;;20.14;53.96;101497.34;5028808;28;20080;-62
2022/08/22 05:29:07;;;;;;;7.78;2.88;;;;;;;20.11;54.08;101500.63;5029082;28;20046;-62
2022/08/22 05:31:40;;;;;;;6.55;2.60;;;;;;;20.11;54.05;101497.88;5028987;28;20060;-62
2022/08/22 05:34:14;;;;;;;4.97;2.88;;;;;;;20.12;54.11;101506.91;5028996;28;20448;-62
2022/08/22 05:36:47;;;;;;;5.95;2.67;;;;;;;20.11;54.28;101506.06;5028797;28;20042;-62
2022/08/22 05:39:20;;;;;;;6.85;3.03;;;;;;;20.09;54.28;101504.72;5028338;28;20081;-62
2022/08/22 05:41:53;;;;;;;6.10;2.75;;;;;;;20.10;54.22;101515.34;5028755;28;20484;-62
2022/08/22 05:44:24;;;;;;;7.53;2.90;;;;;;;20.09;54.00;101512.91;5028931;28;20511;-62
2022/08/22 05:46:59;;;;;;;6.25;2.60;;;;;;;20.09;54.30;101513.72;5048150;28;20049;-62
2022/08/22 05:49:35;;;;;;;6.45;3.30;;;;;;;20.09;54.25;101507.44;5048505;28;20088;-62
2022/08/22 05:52:15;;;;;;;8.13;3.63;;;;;;;20.07;54.29;101509.63;5030349;28;20057;-62
2022/08/22 05:54:52;;;;;;;6.90;3.17;;;;;;;20.07;54.22;101507.72;5028320;28;20046;-62
2022/08/22 05:57:27;;;;;;;6.57;3.08;;;;;;;20.08;54.48;101514.81;5028447;28;20049;-62
2022/08/22 06:00:03;;;;;;;5.18;2.78;;;;;;;20.06;54.39;101507.97;5028542;28;20061;-62
2022/08/22 06:02:47;;;;;;;7.82;2.85;;;;;;;20.06;54.23;101503.34;5028609;28;20041;-62
2022/08/22 06:05:23;;;;;;;5.35;2.80;;;;;;;20.07;54.46;101502.25;5028480;28;20041;-62
2022/08/22 06:07:56;;;;;;;5.13;2.55;;;;;;;20.07;54.32;101510.44;5027541;28;20081;-62
2022/08/22 06:10:30;;;;;;;5.93;3.17;;;;;;;20.07;54.37;101509.63;5028065;28;20050;-62
2022/08/22 06:13:03;;;;;;;9.60;3.60;;;;;;;20.09;54.36;101512.91;5028216;28;20050;-62
2022/08/22 06:15:45;;;;;;;4.50;2.92;;;;;;;20.08;54.63;101509.34;5028136;28;20050;-62
2022/08/22 06:18:19;;;;;;;7.53;3.15;;;;;;;20.09;54.59;101513.72;5027686;28;20056;-62
2022/08/22 06:20:53;;;;;;;5.68;2.92;;;;;;;20.09;54.53;101499.25;5047775;28;20076;-62
2022/08/22 06:23:26;;;;;;;8.27;3.05;;;;;;;20.10;54.51;101511.81;5047340;28;20487;-62
2022/08/22 06:25:58;;;;;;;7.43;3.00;;;;;;;20.09;54.52;101507.44;5045849;28;20678;-62
2022/08/22 06:28:32;;;;;;;6.70;3.25;;;;;;;20.07;54.65;101509.63;5047483;28;20079;-62
2022/08/22 06:31:02;;;;;;;7.95;2.65;;;;;;;20.09;54.45;101512.91;5047742;28;20049;-62
2022/08/22 06:33:37;;;;;;;6.93;3.08;;;;;;;20.06;54.53;101506.06;5046515;28;20077;-62
2022/08/22 06:36:30;;;;;;;6.22;3.67;;;;;;;20.10;54.64;101514.53;5047567;28;20060;-62
2022/08/22 06:39:14;;;;;;;9.65;2.83;;;;;;;20.11;54.50;101516.19;5045814;28;20049;-62
2022/08/22 06:41:49;;;;;;;12.52;3.15;;;;;;;20.10;54.58;101522.72;5047737;28;20124;-62
2022/08/22 06:44:21;;;;;;;5.57;3.10;;;;;;;20.11;54.57;101525.19;5047305;28;20046;-62
2022/08/22 06:46:53;;;;;;;7.15;3.40;;;;;;;20.10;54.58;101526.28;5046925;28;20061;-62
2022/08/22 06:49:23;;;;;;;6.95;3.40;;;;;;;20.11;54.53;101524.34;5040376;28;20053;-62
2022/08/22 06:51:57;;;;;;;5.18;2.67;;;;;;;20.12;54.70;101523.28;5027169;28;20045;-62
2022/08/22 06:54:30;;;;;;;5.07;2.83;;;;;;;20.11;54.86;101525.19;5026889;28;20496;-62
2022/08/22 06:57:03;;;;;;;5.78;2.90;;;;;;;20.11;54.72;101530.63;5027220;28;20056;-62
2022/08/22 06:59:36;;;;;;;5.50;2.90;;;;;;;20.12;54.88;101531.47;5027278;28;20518;-62
2022/08/22 07:02:16;;;;;;;8.18;2.67;;;;;;;20.13;54.93;101535.84;5031140;28;20049;-62
2022/08/22 07:04:48;;;;;;;7.63;3.15;;;;;;;20.13;54.93;101530.38;5046974;28;20112;-62
2022/08/22 07:07:20;;;;;;;6.95;3.15;;;;;;;20.12;55.14;101534.19;5046588;28;20056;-62
2022/08/22 07:09:54;;;;;;;7.00;2.97;;;;;;;20.12;54.74;101537.75;5035584;28;20077;-62
2022/08/22 07:12:27;;;;;;;6.85;2.75;;;;;;;20.13;54.85;101533.09;5026989;28;20057;-62
2022/08/22 07:15:00;;;;;;;6.60;3.10;;;;;;;20.13;54.98;101536.66;5027291;28;21003;-62
2022/08/22 07:17:32;;;;;;;5.82;3.05;;;;;;;20.13;55.22;101531.19;5026611;28;20518;-62
2022/08/22 07:20:09;;;;;;;8.70;3.30;;;;;;;20.13;55.25;101533.09;5027037;28;20114;-62
2022/08/22 07:22:38;;;;;;;5.70;3.03;;;;;;;20.13;55.29;101542.09;5027059;28;20061;-62
2022/08/22 07:25:10;;;;;;;7.05;3.00;;;;;;;20.11;55.11;101535.28;5026791;28;20081;-62
2022/08/22 07:27:51;;;;;;;6.43;3.85;;;;;;;20.13;55.27;101531.19;5026647;28;20077;-62
2022/08/22 07:30:21;;;;;;;7.40;2.90;;;;;;;20.14;54.97;101532.00;5026828;28;20459;-61
2022/08/22 07:32:59;;;;;;;9.10;3.60;;;;;;;20.14;55.27;101529.28;5026901;28;20045;-62
2022/08/22 07:35:52;;;;;;;6.32;3.53;;;;;;;20.14;55.56;101535.56;5026547;28;20048;-62
2022/08/22 07:38:32;;;;;;;8.82;3.90;;;;;;;20.15;55.27;101531.75;5026013;28;20077;-61
2022/08/22 07:41:09;;;;;;;11.25;3.83;;;;;;;20.16;55.19;101535.28;5027028;28;20057;-61
2022/08/22 07:43:42;;;;;;;9.60;3.30;;;;;;;20.17;55.35;101525.19;5026649;28;20054;-61
2022/08/22 07:46:22;;;;;;;7.32;3.40;;;;;;;20.18;55.64;101527.66;5026445;28;20054;-61
2022/08/22 07:48:55;;;;;;;6.10;4.05;;;;;;;20.19;55.13;101521.09;5026393;28;20057;-61
2022/08/22 07:51:42;;;;;;;7.20;3.58;;;;;;;20.20;55.42;101527.38;5026443;28;20057;-61
2022/08/22 07:54:14;;;;;;;8.38;4.35;;;;;;;20.20;55.34;101525.47;5026048;28;20104;-61
2022/08/22 07:56:53;;;;;;;8.40;3.60;;;;;;;20.18;55.02;101522.19;5031445;28;20056;-62
2022/08/22 07:59:21;;;;;;;8.50;3.08;;;;;;;20.21;55.31;101520.84;5046275;28;20049;-62
2022/08/22 08:01:52;;;;;;;8.75;3.20;;;;;;;20.22;55.22;101528.75;5028631;28;20077;-62
2022/08/22 08:04:25;;;;;;;4.90;2.92;;;;;;;20.21;55.43;101520.84;5026465;28;20056;-62
2022/08/22 08:06:56;;;;;;;9.05;3.88;;;;;;;20.24;55.41;101525.75;5025628;28;20049;-62
2022/08/22 08:09:28;;;;;;;5.57;2.83;;;;;;;20.24;55.21;101521.13;5025665;28;20080;-62
2022/08/22 08:11:58;;;;;;;5.03;3.03;;;;;;;20.25;55.29;101516.47;5026444;28;20068;-61
2022/08/22 08:14:27;;;;;;;7.40;3.70;;;;;;;20.27;55.43;101514.31;5026011;28;20057;-62
2022/08/22 08:17:01;;;;;;;8.80;3.38;;;;;;;20.28;55.56;101515.94;5025721;28;20046;-62
2022/08/22 08:19:32;;;;;;;7.82;3.35;;;;;;;20.25;55.42;101511.03;5026166;28;20069;-62
2022/08/22 08:22:00;;;;;;;6.47;3.67;;;;;;;20.22;55.72;101504.19;5026289;28;20050;-62
2022/08/22 08:24:32;;;;;;;9.63;3.00;;;;;;;20.30;55.79;101506.38;5025673;28;20057;-62
2022/08/22 08:30:10;;;;;;;7.13;3.05;;;;;;;20.33;55.53;101508.56;5025991;28;20081;-62
2022/08/22 08:32:46;;;;;;;6.55;3.08;;;;;;;20.31;55.55;101496.28;5025964;28;20057;-62
2022/08/22 08:35:22;;;;;;;9.57;3.85;;;;;;;20.37;55.56;101503.41;5039802;28;20056;-62
2022/08/22 08:37:57;;;;;;;7.75;3.20;;;;;;;20.36;55.45;101499.84;5045090;28;20064;-62
2022/08/22 08:40:55;;;;;;;5.75;2.78;;;;;;;20.40;55.76;101505.63;5045677;28;20049;-62
2022/08/22 08:43:35;;;;;;;7.40;3.10;;;;;;;20.40;55.92;101497.44;5025844;28;20054;-62
2022/08/22 08:46:48;;;;;;;5.80;3.28;;;;;;;20.42;56.04;101509.72;5025736;28;20046;-62
2022/08/22 08:49:39;;;;;;;8.57;3.35;;;;;;;20.44;56.12;101506.72;5029081;28;20081;-62
2022/08/22 08:52:27;;;;;;;;;;;;;;;20.45;56.34;101502.88;5034335;28;20053;-62
2022/08/22 08:55:16;;;;;;;7.15;3.95;;;;;;;20.48;56.56;101498.78;5036277;28;19963;-62
2022/08/22 08:58:02;;;;;;;7.95;3.80;;;;;;;20.49;56.50;101497.69;5049225;28;20080;-61
2022/08/22 09:00:50;;;;;;;8.25;3.60;;;;;;;20.49;57.03;101487.59;5049590;28;20113;-63
2022/08/22 09:03:39;;;;;;;8.57;3.50;;;;;;;20.52;57.43;101497.97;5030556;28;20114;-62
2022/08/22 09:06:26;;;;;;;9.75;3.70;;;;;;;20.54;57.62;101494.97;5029345;28;20046;-62
2022/08/22 09:09:11;;;;;;;;;;;;;;;20.55;57.65;101491.97;5029183;28;20085;-62
2022/08/22 09:12:14;;;;;;;6.85;3.25;;;;;;;20.56;57.39;101496.34;5029554;28;19922;-62
2022/08/22 09:15:08;;;;;;;4.72;2.85;;;;;;;20.57;57.28;101495.25;5029261;28;20050;-62
2022/08/22 09:18:29;;;;;;;11.48;3.47;;;;;;;20.60;57.29;101489.25;5029088;28;20049;-62
2022/08/22 09:21:26;;;;;;;7.30;3.00;;;;;;;20.62;57.20;101487.06;5029402;28;20073;-62
2022/08/22 09:24:24;;;;;;;8.18;3.53;;;;;;;20.60;57.71;101483.78;5028548;28;20058;-62
2022/08/22 09:26:55;;;;;;;9.88;3.78;;;;;;;20.65;57.38;101486.50;5026589;28;20046;-62
2022/08/22 09:29:36;;;;;;;8.25;3.67;;;;;;;20.65;57.11;101483.78;5028890;28;20392;-62
2022/08/22 09:32:44;;;;;;;10.30;3.30;;;;;;;20.68;56.90;101483.22;5029103;28;20050;-62
2022/08/22 09:35:21;;;;;;;8.65;2.97;;;;;;;20.70;56.71;101483.78;5028980;28;20061;-62
2022/08/22 09:38:07;;;;;;;6.47;2.60;;;;;;;20.72;56.65;101480.78;5029051;28;20073;-62
2022/08/22 09:40:43;;;;;;;6.20;2.92;;;;;;;20.72;56.41;101475.31;5028904;28;20046;-63
2022/08/22 09:43:14;;;;;;;7.57;2.80;;;;;;;20.77;56.44;101481.59;5029284;28;20042;-62
2022/08/22 09:45:57;;;;;;;6.05;2.55;;;;;;;20.80;56.20;101488.41;5028731;28;20054;-62
2022/08/22 09:48:46;;;;;;;6.80;2.63;;;;;;;20.80;55.85;101483.75;5036682;28;20051;-62
2022/08/22 09:51:25;;;;;;;10.82;4.28;;;;;;;20.85;55.81;101484.84;5048622;28;20053;-62
2022/08/22 09:54:22;;;;;;;4.90;2.33;;;;;;;20.86;55.62;101486.47;5048060;28;20112;-62
2022/08/22 09:57:14;;;;;;;4.18;2.55;;;;;;;20.88;55.52;101481.56;5038955;28;20050;-62
2022/08/22 09:59:55;;;;;;;7.55;2.65;;;;;;;20.90;55.35;101476.63;5027304;28;20054;-62
2022/08/22 10:02:33;;;;;;;6.28;2.65;;;;;;;20.91;55.42;101468.16;5028538;28;20077;-62
2022/08/22 10:05:13;;;;;;;7.90;2.63;;;;;;;20.91;55.33;101467.34;5028675;28;20105;-62
2022/08/22 10:08:40;;;;;;;6.72;2.70;;;;;;;20.97;54.82;101471.69;5027119;28;20058;-63
2022/08/22 10:11:26;;;;;;;7.82;2.92;;;;;;;20.98;54.26;101462.41;5021746;28;20053;-62
2022/08/22 10:14:01;;;;;;;7.28;2.67;;;;;;;21.00;54.03;101465.69;5036871;28;20180;-62
2022/08/22 10:16:48;;;;;;;6.60;2.38;;;;;;;21.03;54.69;101465.94;5047839;28;20115;-62
2022/08/22 10:19:25;;;;;;;9.93;3.05;;;;;;;21.05;54.06;101465.66;5047379;28;20081;-62
2022/08/22 10:22:26;;;;;;;6.88;2.65;;;;;;;21.07;53.58;101456.09;5047762;28;20077;-62
2022/08/22 10:25:13;;;;;;;7.10;2.75;;;;;;;21.09;53.47;101453.91;5026719;28;20411;-61
2022/08/22 10:27:54;;;;;;;4.30;2.05;;;;;;;21.12;54.03;101458.00;5027886;28;20069;-61
2022/08/22 10:30:27;;;;;;;7.03;2.50;;;;;;;21.14;53.94;101455.81;5028167;28;20053;-62
2022/08/22 10:33:03;;;;;;;5.85;2.08;;;;;;;21.16;53.87;101452.78;5027817;28;20046;-63
2022/08/22 10:35:37;;;;;;;6.38;2.50;;;;;;;21.19;53.75;101458.53;5028191;28;20046;-62
2022/08/22 10:38:11;;;;;;;8.05;2.42;;;;;;;21.22;53.62;101446.25;5027277;28;20046;-62
2022/08/22 10:40:49;;;;;;;8.38;2.45;;;;;;;21.26;53.58;101447.34;5028026;28;20053;-62
2022/08/22 10:43:22;;;;;;;6.13;2.40;;;;;;;21.29;54.06;101447.59;5027484;28;20499;-60
2022/08/22 10:46:02;;;;;;;7.10;2.33;;;;;;;21.35;53.58;101437.47;5027700;28;20058;-61
2022/08/22 10:48:46;;;;;;;5.30;2.20;;;;;;;21.38;53.39;101434.97;5027090;28;20045;-61
2022/08/22 10:51:24;;;;;;;6.03;2.67;;;;;;;21.41;53.38;101431.69;5038603;28;20076;-61
2022/08/22 10:54:06;;;;;;;5.88;2.10;;;;;;;21.45;53.01;101434.69;5046953;28;20046;-61
2022/08/22 10:56:46;;;;;;;7.05;2.00;;;;;;;21.50;53.15;101436.56;5047125;28;20610;-61
2022/08/22 10:59:28;;;;;;;8.73;2.67;;;;;;;21.53;52.66;101427.81;5046056;28;20057;-61
2022/08/22 11:02:10;;;;;;;8.10;2.42;;;;;;;21.55;52.19;101431.91;5046125;28;20050;-61
2022/08/22 11:05:06;;;;;;;7.38;2.25;;;;;;;21.58;52.24;101434.06;5027286;28;20057;-61
2022/08/22 11:07:45;;;;;;;7.00;2.40;;;;;;;21.61;51.52;101422.56;5026699;28;20076;-61
2022/08/22 11:10:26;;;;;;;8.70;2.55;;;;;;;21.64;51.13;101424.75;5033558;28;20053;-61
2022/08/22 11:13:10;;;;;;;10.82;2.60;;;;;;;21.69;50.76;101421.16;5046940;28;20054;-62
2022/08/22 11:15:58;;;;;;;7.65;2.63;;;;;;;21.74;50.64;101423.88;5046878;28;20124;-61
2022/08/22 11:18:38;;;;;;;8.05;2.25;;;;;;;21.77;50.56;101428.78;5045514;28;20045;-61
2022/08/22 11:21:10;;;;;;;6.72;2.30;;;;;;;21.79;51.00;101423.03;5026869;28;20065;-61
2022/08/22 11:23:48;;;;;;;5.90;2.35;;;;;;;21.85;51.21;101428.19;5033770;28;20052;-61
2022/08/22 11:26:33;;;;;;;10.07;2.80;;;;;;;21.90;51.02;101430.88;5046530;28;20490;-61
2022/08/22 11:29:38;;;;;;;13.60;3.40;;;;;;;21.93;50.84;101416.63;5045462;28;20076;-62
2022/08/22 11:32:16;;;;;;;8.82;2.13;;;;;;;21.97;49.89;101419.63;5046598;28;20108;-62
2022/08/22 11:34:57;;;;;;;9.93;2.50;;;;;;;21.99;49.93;101415.50;5046312;28;20499;-62
2022/08/22 11:37:47;;;;;;;7.28;2.13;;;;;;;22.03;50.15;101413.84;5045217;28;20080;-62
2022/08/22 11:40:41;;;;;;;10.70;2.20;;;;;;;22.08;50.70;101415.75;5046129;28;20045;-62
2022/08/22 11:43:28;;;;;;;6.80;3.03;;;;;;;22.12;50.08;101410.50;5046329;28;20049;-61
2022/08/22 11:46:24;;;;;;;8.88;2.22;;;;;;;22.17;50.45;101415.94;5026503;28;20077;-61
2022/08/22 11:49:28;;;;;;;10.23;2.92;;;;;;;22.20;49.98;101412.66;5026169;28;20088;-62
2022/08/22 11:52:12;;;;;;;6.63;2.50;;;;;;;22.25;50.90;101407.13;5026862;28;20070;-61
2022/08/22 11:55:00;;;;;;;6.57;2.35;;;;;;;22.29;51.68;101409.00;5026010;28;20526;-61
2022/08/22 11:57:33;;;;;;;8.93;2.92;;;;;;;22.32;51.69;101402.97;5026384;28;20110;-61
2022/08/22 12:00:17;;;;;;;9.68;2.92;;;;;;;22.35;51.66;101402.38;5026207;28;20499;-62
2022/08/22 12:03:05;;;;;;;8.73;2.30;;;;;;;22.34;51.46;101394.44;5040542;28;20076;-61
2022/08/22 12:05:36;;;;;;;6.67;2.07;;;;;;;22.43;52.09;101403.69;5046061;28;20080;-61
2022/08/22 12:08:11;;;;;;;4.25;1.83;;;;;;;22.46;52.28;101405.84;5045029;28;20789;-60
2022/08/22 12:10:45;;;;;;;4.82;2.08;;;;;;;22.49;51.49;101404.47;5034608;28;20411;-61
2022/08/22 12:13:19;;;;;;;5.85;1.92;;;;;;;22.52;51.76;101401.97;5026162;28;20153;-61
2022/08/22 12:16:09;;;;;;;6.07;2.17;;;;;;;22.55;52.02;101398.59;5026450;28;20054;-62
2022/08/22 12:18:51;;;;;;;5.93;2.22;;;;;;;22.58;51.96;101400.78;5025615;28;20113;-61
2022/08/22 12:21:37;;;;;;;5.82;2.45;;;;;;;22.63;52.85;101394.44;5026198;28;20050;-62
2022/08/22 12:24:19;;;;;;;2.78;1.67;;;;;;;22.66;53.19;101400.16;5025058;28;20077;-61
2022/08/22 12:26:59;;;;;;;5.25;2.72;;;;;;;22.69;52.73;101405.03;5026154;28;20045;-62
2022/08/22 12:29:35;;;;;;;5.32;1.92;;;;;;;22.70;51.15;101397.66;5025840;28;20053;-61
2022/08/22 12:32:35;;;;;;;6.60;2.13;;;;;;;22.72;51.29;101403.66;5026217;28;20073;-61